sensor_id;sensor_type;location;lat;lon;timestamp;temperature;humidity
76967;DHT22;65904;52.278;20.972;2023-03-26T00:00:49;7.90;99.90
76967;DHT22;65904;52.278;20.972;2023-03-26T00:03:38;7.80;99.90
76967;DHT22;65904;52.278;20.972;2023-03-26T00:06:26;7.80;99.90
76967;DHT22;65904;52.278;20.972;2023-03-26T00:09:14;7.70;99.90
76967;DHT22;65904;52.278;20.972;2023-03-26T00:12:01;7.70;99.90
76967;DHT22;65904;52.278;20.972;2023-03-26T00:14:47;7.60;99.90
76967;DHT22;65904;52.278;20.972;2023-03-26T00:17:36;7.60;99.90
76967;DHT22;65904;52.278;20.972;2023-03-26T00:20:23;7.50;99.90
76967;DHT22;65904;52.278;20.972;2023-03-26T00:23:11;7.50;99.90
76967;DHT22;65904;52.278;20.972;2023-03-26T00:25:58;7.40;99.90
76967;DHT22;65904;52.278;20.972;2023-03-26T00:28:44;7.40;99.90
76967;DHT22;65904;52.278;20.972;2023-03-26T00:31:31;7.40;99.90
76967;DHT22;65904;52.278;20.972;2023-03-26T00:34:19;7.40;99.90
76967;DHT22;65904;52.278;20.972;2023-03-26T00:37:07;7.40;99.90
76967;DHT22;65904;52.278;20.972;2023-03-26T00:39:56;7.40;99.90
76967;DHT22;65904;52.278;20.972;2023-03-26T00:42:50;7.30;99.90
76967;DHT22;65904;52.278;20.972;2023-03-26T00:45:36;7.40;99.90
76967;DHT22;65904;52.278;20.972;2023-03-26T00:48:23;7.40;99.90
76967;DHT22;65904;52.278;20.972;2023-03-26T00:51:11;7.40;99.90
76967;DHT22;65904;52.278;20.972;2023-03-26T00:53:59;7.40;99.90
76967;DHT22;65904;52.278;20.972;2023-03-26T00:56:45;7.40;99.90
76967;DHT22;65904;52.278;20.972;2023-03-26T00:59:31;7.50;99.90
76967;DHT22;65904;52.278;20.972;2023-03-26T01:02:19;7.50;99.90
76967;DHT22;65904;52.278;20.972;2023-03-26T01:08:32;7.60;99.90
76967;DHT22;65904;52.278;20.972;2023-03-26T01:11:21;7.60;99.90
76967;DHT22;65904;52.278;20.972;2023-03-26T01:14:11;7.60;99.90
76967;DHT22;65904;52.278;20.972;2023-03-26T01:17:00;7.60;99.90
76967;DHT22;65904;52.278;20.972;2023-03-26T01:19:50;7.60;99.90
76967;DHT22;65904;52.278;20.972;2023-03-26T01:22:40;7.60;99.90
76967;DHT22;65904;52.278;20.972;2023-03-26T01:25:31;7.60;99.90
76967;DHT22;65904;52.278;20.972;2023-03-26T01:28:21;7.60;99.90
76967;DHT22;65904;52.278;20.972;2023-03-26T01:31:14;7.60;99.90
76967;DHT22;65904;52.278;20.972;2023-03-26T01:34:09;7.50;99.90
76967;DHT22;65904;52.278;20.972;2023-03-26T01:37:05;7.60;99.90
76967;DHT22;65904;52.278;20.972;2023-03-26T01:39:55;7.60;99.90
76967;DHT22;65904;52.278;20.972;2023-03-26T01:42:49;7.50;99.90
76967;DHT22;65904;52.278;20.972;2023-03-26T01:45:38;7.50;99.90
76967;DHT22;65904;52.278;20.972;2023-03-26T01:48:30;7.40;99.90
76967;DHT22;65904;52.278;20.972;2023-03-26T01:51:26;7.50;99.90
76967;DHT22;65904;52.278;20.972;2023-03-26T01:54:16;7.40;99.90
76967;DHT22;65904;52.278;20.972;2023-03-26T01:57:09;7.40;99.90
76967;DHT22;65904;52.278;20.972;2023-03-26T02:00:17;7.40;99.90
76967;DHT22;65904;52.278;20.972;2023-03-26T02:03:16;7.40;99.90
76967;DHT22;65904;52.278;20.972;2023-03-26T02:06:12;7.40;99.90
76967;DHT22;65904;52.278;20.972;2023-03-26T02:09:04;7.40;99.90
76967;DHT22;65904;52.278;20.972;2023-03-26T02:11:53;7.40;99.90
76967;DHT22;65904;52.278;20.972;2023-03-26T02:14:40;7.40;99.90
76967;DHT22;65904;52.278;20.972;2023-03-26T02:17:28;7.50;99.90
76967;DHT22;65904;52.278;20.972;2023-03-26T02:20:17;7.40;99.90
76967;DHT22;65904;52.278;20.972;2023-03-26T02:23:04;7.40;99.90
76967;DHT22;65904;52.278;20.972;2023-03-26T02:25:50;7.40;99.90
76967;DHT22;65904;52.278;20.972;2023-03-26T02:28:37;7.30;99.90
76967;DHT22;65904;52.278;20.972;2023-03-26T02:31:24;7.40;99.90
76967;DHT22;65904;52.278;20.972;2023-03-26T02:34:12;7.30;99.90
76967;DHT22;65904;52.278;20.972;2023-03-26T02:37:06;7.20;99.90
76967;DHT22;65904;52.278;20.972;2023-03-26T02:39:53;7.20;99.90
76967;DHT22;65904;52.278;20.972;2023-03-26T02:42:46;7.10;99.90
76967;DHT22;65904;52.278;20.972;2023-03-26T02:45:32;7.10;99.90
76967;DHT22;65904;52.278;20.972;2023-03-26T02:48:25;7.10;99.90
76967;DHT22;65904;52.278;20.972;2023-03-26T02:51:18;7.10;99.90
76967;DHT22;65904;52.278;20.972;2023-03-26T02:54:27;7.20;99.90
76967;DHT22;65904;52.278;20.972;2023-03-26T02:57:35;7.20;99.90
76967;DHT22;65904;52.278;20.972;2023-03-26T03:00:21;7.30;99.90
76967;DHT22;65904;52.278;20.972;2023-03-26T03:03:43;7.30;99.90
76967;DHT22;65904;52.278;20.972;2023-03-26T03:07:07;7.40;99.90
76967;DHT22;65904;52.278;20.972;2023-03-26T03:09:54;7.40;99.90
76967;DHT22;65904;52.278;20.972;2023-03-26T03:13:04;7.40;99.90
76967;DHT22;65904;52.278;20.972;2023-03-26T03:15:52;7.50;99.90
76967;DHT22;65904;52.278;20.972;2023-03-26T03:18:38;7.60;99.90
76967;DHT22;65904;52.278;20.972;2023-03-26T03:21:26;7.60;99.90
76967;DHT22;65904;52.278;20.972;2023-03-26T03:24:15;7.60;99.90
76967;DHT22;65904;52.278;20.972;2023-03-26T03:27:04;7.70;99.90
76967;DHT22;65904;52.278;20.972;2023-03-26T03:29:52;7.70;99.90
76967;DHT22;65904;52.278;20.972;2023-03-26T03:32:57;7.70;99.90
76967;DHT22;65904;52.278;20.972;2023-03-26T03:35:46;7.70;99.90
76967;DHT22;65904;52.278;20.972;2023-03-26T03:38:33;7.80;99.90
76967;DHT22;65904;52.278;20.972;2023-03-26T03:41:21;7.80;99.90
76967;DHT22;65904;52.278;20.972;2023-03-26T03:44:07;7.70;99.90
76967;DHT22;65904;52.278;20.972;2023-03-26T03:46:53;7.70;99.90
76967;DHT22;65904;52.278;20.972;2023-03-26T03:49:40;7.70;99.90
76967;DHT22;65904;52.278;20.972;2023-03-26T03:52:27;7.70;99.90
76967;DHT22;65904;52.278;20.972;2023-03-26T03:55:13;7.70;99.90
76967;DHT22;65904;52.278;20.972;2023-03-26T03:58:06;7.70;99.90
76967;DHT22;65904;52.278;20.972;2023-03-26T04:00:54;7.70;99.90
76967;DHT22;65904;52.278;20.972;2023-03-26T04:04:07;7.70;99.90
76967;DHT22;65904;52.278;20.972;2023-03-26T04:07:10;7.70;99.90
76967;DHT22;65904;52.278;20.972;2023-03-26T04:10:29;7.70;99.90
76967;DHT22;65904;52.278;20.972;2023-03-26T04:13:48;7.70;99.90
76967;DHT22;65904;52.278;20.972;2023-03-26T04:16:43;7.60;99.90
76967;DHT22;65904;52.278;20.972;2023-03-26T04:19:29;7.60;99.90
76967;DHT22;65904;52.278;20.972;2023-03-26T04:22:16;7.50;99.90
76967;DHT22;65904;52.278;20.972;2023-03-26T04:25:12;7.50;99.90
76967;DHT22;65904;52.278;20.972;2023-03-26T04:28:05;7.60;99.90
76967;DHT22;65904;52.278;20.972;2023-03-26T04:31:18;7.60;99.90
76967;DHT22;65904;52.278;20.972;2023-03-26T04:34:08;7.60;99.90
76967;DHT22;65904;52.278;20.972;2023-03-26T04:37:08;7.60;99.90
76967;DHT22;65904;52.278;20.972;2023-03-26T04:40:06;7.60;99.90
76967;DHT22;65904;52.278;20.972;2023-03-26T04:42:56;7.60;99.90
76967;DHT22;65904;52.278;20.972;2023-03-26T04:46:04;7.70;99.90
76967;DHT22;65904;52.278;20.972;2023-03-26T04:48:59;7.70;99.90
76967;DHT22;65904;52.278;20.972;2023-03-26T04:51:45;7.70;99.90
76967;DHT22;65904;52.278;20.972;2023-03-26T04:54:51;7.70;99.90
76967;DHT22;65904;52.278;20.972;2023-03-26T04:57:42;7.60;99.90
76967;DHT22;65904;52.278;20.972;2023-03-26T05:00:40;7.60;99.90
76967;DHT22;65904;52.278;20.972;2023-03-26T05:03:27;7.60;99.90
76967;DHT22;65904;52.278;20.972;2023-03-26T05:06:19;7.60;99.90
76967;DHT22;65904;52.278;20.972;2023-03-26T05:09:06;7.60;99.90
76967;DHT22;65904;52.278;20.972;2023-03-26T05:12:23;7.60;99.90
76967;DHT22;65904;52.278;20.972;2023-03-26T05:15:18;7.60;99.90
76967;DHT22;65904;52.278;20.972;2023-03-26T05:18:26;7.60;99.90
76967;DHT22;65904;52.278;20.972;2023-03-26T05:21:13;7.70;99.90
76967;DHT22;65904;52.278;20.972;2023-03-26T05:24:00;7.70;99.90
76967;DHT22;65904;52.278;20.972;2023-03-26T05:26:46;7.70;99.90
76967;DHT22;65904;52.278;20.972;2023-03-26T05:29:32;7.80;99.90
76967;DHT22;65904;52.278;20.972;2023-03-26T05:32:19;7.80;99.90
76967;DHT22;65904;52.278;20.972;2023-03-26T05:35:08;7.90;99.90
76967;DHT22;65904;52.278;20.972;2023-03-26T05:37:57;7.90;99.90
76967;DHT22;65904;52.278;20.972;2023-03-26T05:40:45;7.90;99.90
76967;DHT22;65904;52.278;20.972;2023-03-26T05:43:36;8.00;99.90
76967;DHT22;65904;52.278;20.972;2023-03-26T05:46:28;8.10;99.90
76967;DHT22;65904;52.278;20.972;2023-03-26T05:49:15;8.10;99.90
76967;DHT22;65904;52.278;20.972;2023-03-26T05:52:01;8.20;99.90
76967;DHT22;65904;52.278;20.972;2023-03-26T05:55:06;8.20;99.90
76967;DHT22;65904;52.278;20.972;2023-03-26T05:58:27;8.30;99.90
76967;DHT22;65904;52.278;20.972;2023-03-26T06:01:33;8.30;99.90
76967;DHT22;65904;52.278;20.972;2023-03-26T06:04:45;8.40;99.90
76967;DHT22;65904;52.278;20.972;2023-03-26T06:07:41;8.40;99.90
76967;DHT22;65904;52.278;20.972;2023-03-26T06:10:31;8.50;99.90
76967;DHT22;65904;52.278;20.972;2023-03-26T06:13:18;8.50;99.90
76967;DHT22;65904;52.278;20.972;2023-03-26T06:16:09;8.50;99.90
76967;DHT22;65904;52.278;20.972;2023-03-26T06:19:01;8.50;99.90
76967;DHT22;65904;52.278;20.972;2023-03-26T06:22:04;8.50;99.90
76967;DHT22;65904;52.278;20.972;2023-03-26T06:25:05;8.60;99.90
76967;DHT22;65904;52.278;20.972;2023-03-26T06:28:01;8.60;99.90
76967;DHT22;65904;52.278;20.972;2023-03-26T06:31:08;8.60;99.90
76967;DHT22;65904;52.278;20.972;2023-03-26T06:34:01;8.60;99.90
76967;DHT22;65904;52.278;20.972;2023-03-26T06:36:47;8.50;99.90
76967;DHT22;65904;52.278;20.972;2023-03-26T06:39:36;8.40;99.90
76967;DHT22;65904;52.278;20.972;2023-03-26T06:42:49;8.40;99.90
76967;DHT22;65904;52.278;20.972;2023-03-26T06:45:54;8.40;99.90
76967;DHT22;65904;52.278;20.972;2023-03-26T06:49:02;8.40;99.90
76967;DHT22;65904;52.278;20.972;2023-03-26T06:52:07;8.30;99.90
76967;DHT22;65904;52.278;20.972;2023-03-26T06:55:22;8.30;99.90
76967;DHT22;65904;52.278;20.972;2023-03-26T06:58:20;8.30;99.90
76967;DHT22;65904;52.278;20.972;2023-03-26T07:01:25;8.30;99.90
76967;DHT22;65904;52.278;20.972;2023-03-26T07:04:31;8.40;99.90
76967;DHT22;65904;52.278;20.972;2023-03-26T07:07:36;8.60;99.90
76967;DHT22;65904;52.278;20.972;2023-03-26T07:10:46;8.70;99.90
76967;DHT22;65904;52.278;20.972;2023-03-26T07:13:52;8.80;99.90
76967;DHT22;65904;52.278;20.972;2023-03-26T07:16:58;9.00;99.90
76967;DHT22;65904;52.278;20.972;2023-03-26T07:19:57;9.10;99.90
76967;DHT22;65904;52.278;20.972;2023-03-26T07:22:45;9.30;99.90
76967;DHT22;65904;52.278;20.972;2023-03-26T07:25:34;9.40;99.90
76967;DHT22;65904;52.278;20.972;2023-03-26T07:29:00;9.60;99.90
76967;DHT22;65904;52.278;20.972;2023-03-26T07:32:19;9.80;99.90
76967;DHT22;65904;52.278;20.972;2023-03-26T07:35:35;9.80;99.90
76967;DHT22;65904;52.278;20.972;2023-03-26T07:38:52;9.70;99.90
76967;DHT22;65904;52.278;20.972;2023-03-26T07:41:59;9.60;99.90
76967;DHT22;65904;52.278;20.972;2023-03-26T07:45:10;9.50;99.90
76967;DHT22;65904;52.278;20.972;2023-03-26T07:48:16;9.30;99.90
76967;DHT22;65904;52.278;20.972;2023-03-26T07:51:24;9.10;99.90
76967;DHT22;65904;52.278;20.972;2023-03-26T07:54:31;9.00;99.90
76967;DHT22;65904;52.278;20.972;2023-03-26T07:58:03;9.00;99.90
76967;DHT22;65904;52.278;20.972;2023-03-26T08:01:42;9.10;99.90
76967;DHT22;65904;52.278;20.972;2023-03-26T08:04:38;9.20;99.90
76967;DHT22;65904;52.278;20.972;2023-03-26T08:07:52;9.30;99.90
76967;DHT22;65904;52.278;20.972;2023-03-26T08:11:01;9.40;99.90
76967;DHT22;65904;52.278;20.972;2023-03-26T08:14:05;9.50;99.90
76967;DHT22;65904;52.278;20.972;2023-03-26T08:16:55;9.60;99.90
76967;DHT22;65904;52.278;20.972;2023-03-26T08:19:53;9.70;99.90
76967;DHT22;65904;52.278;20.972;2023-03-26T08:22:45;9.70;99.90
76967;DHT22;65904;52.278;20.972;2023-03-26T08:25:44;9.60;99.90
76967;DHT22;65904;52.278;20.972;2023-03-26T08:28:44;9.50;99.90
76967;DHT22;65904;52.278;20.972;2023-03-26T08:31:34;9.40;99.90
76967;DHT22;65904;52.278;20.972;2023-03-26T08:34:20;9.30;99.90
76967;DHT22;65904;52.278;20.972;2023-03-26T08:37:07;9.30;99.90
76967;DHT22;65904;52.278;20.972;2023-03-26T08:39:55;9.30;99.90
76967;DHT22;65904;52.278;20.972;2023-03-26T08:43:00;9.30;99.90
76967;DHT22;65904;52.278;20.972;2023-03-26T08:49:08;9.40;99.90
76967;DHT22;65904;52.278;20.972;2023-03-26T08:52:36;9.40;99.90
76967;DHT22;65904;52.278;20.972;2023-03-26T08:55:39;9.40;99.90
76967;DHT22;65904;52.278;20.972;2023-03-26T08:58:56;9.40;99.90
76967;DHT22;65904;52.278;20.972;2023-03-26T09:02:01;9.30;99.90
76967;DHT22;65904;52.278;20.972;2023-03-26T09:11:44;9.60;99.90
76967;DHT22;65904;52.278;20.972;2023-03-26T09:18:27;10.80;99.90
76967;DHT22;65904;52.278;20.972;2023-03-26T09:31:26;11.10;99.90
76967;DHT22;65904;52.278;20.972;2023-03-26T09:34:28;10.60;99.90
76967;DHT22;65904;52.278;20.972;2023-03-26T09:37:17;10.30;99.90
76967;DHT22;65904;52.278;20.972;2023-03-26T09:40:15;10.20;99.90
76967;DHT22;65904;52.278;20.972;2023-03-26T09:46:27;10.00;99.90
76967;DHT22;65904;52.278;20.972;2023-03-26T09:49:37;10.00;99.90
76967;DHT22;65904;52.278;20.972;2023-03-26T09:52:45;10.10;99.90
76967;DHT22;65904;52.278;20.972;2023-03-26T09:55:57;10.10;99.90
76967;DHT22;65904;52.278;20.972;2023-03-26T09:59:03;10.20;99.90
76967;DHT22;65904;52.278;20.972;2023-03-26T10:01:58;10.50;99.90
76967;DHT22;65904;52.278;20.972;2023-03-26T10:05:11;10.70;99.90
76967;DHT22;65904;52.278;20.972;2023-03-26T10:08:14;11.00;99.90
76967;DHT22;65904;52.278;20.972;2023-03-26T10:11:06;11.00;99.90
76967;DHT22;65904;52.278;20.972;2023-03-26T10:14:03;10.70;99.90
76967;DHT22;65904;52.278;20.972;2023-03-26T10:17:01;10.00;99.90
76967;DHT22;65904;52.278;20.972;2023-03-26T10:19:56;9.70;99.90
76967;DHT22;65904;52.278;20.972;2023-03-26T10:22:54;9.70;99.90
76967;DHT22;65904;52.278;20.972;2023-03-26T10:25:53;10.10;99.90
76967;DHT22;65904;52.278;20.972;2023-03-26T10:28:52;11.80;99.90
76967;DHT22;65904;52.278;20.972;2023-03-26T10:31:46;13.60;99.90
76967;DHT22;65904;52.278;20.972;2023-03-26T10:34:57;14.90;98.30
76967;DHT22;65904;52.278;20.972;2023-03-26T10:37:57;15.60;97.10
76967;DHT22;65904;52.278;20.972;2023-03-26T10:40:57;15.70;95.60
76967;DHT22;65904;52.278;20.972;2023-03-26T10:43:55;15.40;96.40
76967;DHT22;65904;52.278;20.972;2023-03-26T10:47:10;13.90;97.50
76967;DHT22;65904;52.278;20.972;2023-03-26T10:53:25;10.30;99.90
76967;DHT22;65904;52.278;20.972;2023-03-26T10:56:18;9.70;99.90
76967;DHT22;65904;52.278;20.972;2023-03-26T10:59:10;9.90;99.90
76967;DHT22;65904;52.278;20.972;2023-03-26T11:02:09;11.60;99.90
76967;DHT22;65904;52.278;20.972;2023-03-26T11:05:19;13.10;99.90
76967;DHT22;65904;52.278;20.972;2023-03-26T11:08:12;15.60;98.60
76967;DHT22;65904;52.278;20.972;2023-03-26T11:11:05;16.60;96.60
76967;DHT22;65904;52.278;20.972;2023-03-26T11:14:02;16.90;95.20
76967;DHT22;65904;52.278;20.972;2023-03-26T11:16:57;18.10;93.40
76967;DHT22;65904;52.278;20.972;2023-03-26T11:19:51;16.70;94.50
76967;DHT22;65904;52.278;20.972;2023-03-26T11:22:49;14.00;95.80
76967;DHT22;65904;52.278;20.972;2023-03-26T11:25:56;12.60;99.30
76967;DHT22;65904;52.278;20.972;2023-03-26T11:29:11;11.50;99.90
76967;DHT22;65904;52.278;20.972;2023-03-26T11:32:03;10.80;99.90
76967;DHT22;65904;52.278;20.972;2023-03-26T11:34:56;10.30;99.90
76967;DHT22;65904;52.278;20.972;2023-03-26T11:37:49;10.30;99.90
76967;DHT22;65904;52.278;20.972;2023-03-26T11:40:39;10.30;99.90
76967;DHT22;65904;52.278;20.972;2023-03-26T11:43:33;10.40;99.90
76967;DHT22;65904;52.278;20.972;2023-03-26T11:46:22;10.70;99.90
76967;DHT22;65904;52.278;20.972;2023-03-26T11:49:11;11.10;99.90
76967;DHT22;65904;52.278;20.972;2023-03-26T11:51:59;11.70;99.90
76967;DHT22;65904;52.278;20.972;2023-03-26T11:54:46;11.70;99.90
76967;DHT22;65904;52.278;20.972;2023-03-26T11:57:35;11.50;99.90
76967;DHT22;65904;52.278;20.972;2023-03-26T12:00:23;11.40;99.90
76967;DHT22;65904;52.278;20.972;2023-03-26T12:03:14;11.30;99.90
76967;DHT22;65904;52.278;20.972;2023-03-26T12:06:01;11.20;99.90
76967;DHT22;65904;52.278;20.972;2023-03-26T12:08:49;11.70;99.90
76967;DHT22;65904;52.278;20.972;2023-03-26T12:11:36;11.30;99.90
76967;DHT22;65904;52.278;20.972;2023-03-26T12:14:24;11.10;99.90
76967;DHT22;65904;52.278;20.972;2023-03-26T12:17:13;11.20;99.90
76967;DHT22;65904;52.278;20.972;2023-03-26T12:20:00;13.90;99.90
76967;DHT22;65904;52.278;20.972;2023-03-26T12:22:51;14.50;98.30
76967;DHT22;65904;52.278;20.972;2023-03-26T12:25:39;12.90;99.10
76967;DHT22;65904;52.278;20.972;2023-03-26T12:28:30;12.00;99.90
76967;DHT22;65904;52.278;20.972;2023-03-26T12:31:17;13.60;99.90
76967;DHT22;65904;52.278;20.972;2023-03-26T12:34:06;17.10;96.90
76967;DHT22;65904;52.278;20.972;2023-03-26T12:36:55;19.20;90.20
76967;DHT22;65904;52.278;20.972;2023-03-26T12:39:44;19.60;83.60
76967;DHT22;65904;52.278;20.972;2023-03-26T12:42:32;19.10;81.90
76967;DHT22;65904;52.278;20.972;2023-03-26T12:45:20;17.40;84.40
76967;DHT22;65904;52.278;20.972;2023-03-26T12:48:10;17.70;89.50
76967;DHT22;65904;52.278;20.972;2023-03-26T12:51:05;19.80;82.20
76967;DHT22;65904;52.278;20.972;2023-03-26T12:54:02;20.80;74.10
76967;DHT22;65904;52.278;20.972;2023-03-26T12:57:03;21.90;58.60
76967;DHT22;65904;52.278;20.972;2023-03-26T13:00:10;18.60;65.10
76967;DHT22;65904;52.278;20.972;2023-03-26T13:03:15;15.40;81.30
76967;DHT22;65904;52.278;20.972;2023-03-26T13:06:33;13.70;92.00
76967;DHT22;65904;52.278;20.972;2023-03-26T13:12:59;12.90;95.00
76967;DHT22;65904;52.278;20.972;2023-03-26T13:15:57;15.70;91.00
76967;DHT22;65904;52.278;20.972;2023-03-26T13:18:50;16.90;90.00
76967;DHT22;65904;52.278;20.972;2023-03-26T13:21:46;17.80;79.80
76967;DHT22;65904;52.278;20.972;2023-03-26T13:24:42;15.70;87.50
76967;DHT22;65904;52.278;20.972;2023-03-26T13:27:40;14.10;92.00
76967;DHT22;65904;52.278;20.972;2023-03-26T13:30:33;15.80;90.90
76967;DHT22;65904;52.278;20.972;2023-03-26T13:33:34;16.50;87.70
76967;DHT22;65904;52.278;20.972;2023-03-26T13:36:32;17.30;85.80
76967;DHT22;65904;52.278;20.972;2023-03-26T13:39:28;17.60;85.40
76967;DHT22;65904;52.278;20.972;2023-03-26T13:42:24;19.10;81.50
76967;DHT22;65904;52.278;20.972;2023-03-26T13:45:30;19.50;73.00
76967;DHT22;65904;52.278;20.972;2023-03-26T13:48:21;19.20;67.30
76967;DHT22;65904;52.278;20.972;2023-03-26T13:51:15;20.30;60.40
76967;DHT22;65904;52.278;20.972;2023-03-26T13:54:12;18.80;63.30
76967;DHT22;65904;52.278;20.972;2023-03-26T13:57:05;17.10;73.60
76967;DHT22;65904;52.278;20.972;2023-03-26T13:59:58;18.10;79.40
76967;DHT22;65904;52.278;20.972;2023-03-26T14:03:03;19.40;71.20
76967;DHT22;65904;52.278;20.972;2023-03-26T14:05:55;17.60;76.90
76967;DHT22;65904;52.278;20.972;2023-03-26T14:08:47;16.40;90.10
76967;DHT22;65904;52.278;20.972;2023-03-26T14:11:47;17.40;87.10
76967;DHT22;65904;52.278;20.972;2023-03-26T14:14:39;16.00;91.30
76967;DHT22;65904;52.278;20.972;2023-03-26T14:17:33;15.90;91.00
76967;DHT22;65904;52.278;20.972;2023-03-26T14:23:54;13.90;92.90
76967;DHT22;65904;52.278;20.972;2023-03-26T14:26:53;13.60;92.50
76967;DHT22;65904;52.278;20.972;2023-03-26T14:29:55;13.50;92.40
76967;DHT22;65904;52.278;20.972;2023-03-26T14:32:53;13.30;92.50
76967;DHT22;65904;52.278;20.972;2023-03-26T14:35:53;13.50;92.60
76967;DHT22;65904;52.278;20.972;2023-03-26T14:39:09;13.40;93.20
76967;DHT22;65904;52.278;20.972;2023-03-26T14:42:01;13.30;93.20
76967;DHT22;65904;52.278;20.972;2023-03-26T14:48:25;13.90;92.80
76967;DHT22;65904;52.278;20.972;2023-03-26T14:51:22;14.30;92.00
76967;DHT22;65904;52.278;20.972;2023-03-26T14:54:16;14.80;92.00
76967;DHT22;65904;52.278;20.972;2023-03-26T14:57:32;15.60;90.90
76967;DHT22;65904;52.278;20.972;2023-03-26T15:07:27;14.20;92.40
76967;DHT22;65904;52.278;20.972;2023-03-26T15:10:41;14.10;92.70
76967;DHT22;65904;52.278;20.972;2023-03-26T15:13:47;13.40;93.80
76967;DHT22;65904;52.278;20.972;2023-03-26T15:23:58;12.20;95.90
76967;DHT22;65904;52.278;20.972;2023-03-26T15:27:24;12.10;96.50
76967;DHT22;65904;52.278;20.972;2023-03-26T15:30:53;12.70;95.80
76967;DHT22;65904;52.278;20.972;2023-03-26T15:34:28;13.10;95.00
76967;DHT22;65904;52.278;20.972;2023-03-26T15:41:03;12.80;95.40
76967;DHT22;65904;52.278;20.972;2023-03-26T15:44:33;12.90;94.80
76967;DHT22;65904;52.278;20.972;2023-03-26T15:47:42;12.90;94.60
76967;DHT22;65904;52.278;20.972;2023-03-26T15:50:40;12.70;94.10
76967;DHT22;65904;52.278;20.972;2023-03-26T15:53:35;12.40;94.50
76967;DHT22;65904;52.278;20.972;2023-03-26T15:56:37;12.10;94.80
76967;DHT22;65904;52.278;20.972;2023-03-26T15:59:35;11.90;94.80
76967;DHT22;65904;52.278;20.972;2023-03-26T16:02:33;11.70;94.90
76967;DHT22;65904;52.278;20.972;2023-03-26T16:05:39;11.50;95.00
76967;DHT22;65904;52.278;20.972;2023-03-26T16:08:32;11.50;95.30
76967;DHT22;65904;52.278;20.972;2023-03-26T16:11:47;11.60;94.90
76967;DHT22;65904;52.278;20.972;2023-03-26T16:14:43;11.90;94.60
76967;DHT22;65904;52.278;20.972;2023-03-26T16:18:03;11.90;94.80
76967;DHT22;65904;52.278;20.972;2023-03-26T16:20:54;11.90;94.80
76967;DHT22;65904;52.278;20.972;2023-03-26T16:23:54;12.10;94.80
76967;DHT22;65904;52.278;20.972;2023-03-26T16:26:51;12.10;94.80
76967;DHT22;65904;52.278;20.972;2023-03-26T16:30:16;12.00;94.90
76967;DHT22;65904;52.278;20.972;2023-03-26T16:33:13;11.80;95.60
76967;DHT22;65904;52.278;20.972;2023-03-26T16:36:08;11.70;95.90
76967;DHT22;65904;52.278;20.972;2023-03-26T16:39:22;11.50;96.20
76967;DHT22;65904;52.278;20.972;2023-03-26T16:42:29;11.30;96.80
76967;DHT22;65904;52.278;20.972;2023-03-26T16:45:22;11.00;97.40
76967;DHT22;65904;52.278;20.972;2023-03-26T16:48:20;10.70;97.80
76967;DHT22;65904;52.278;20.972;2023-03-26T16:51:13;10.50;98.10
76967;DHT22;65904;52.278;20.972;2023-03-26T16:54:08;10.30;98.40
76967;DHT22;65904;52.278;20.972;2023-03-26T16:57:03;10.20;98.50
76967;DHT22;65904;52.278;20.972;2023-03-26T17:03:31;10.00;98.80
76967;DHT22;65904;52.278;20.972;2023-03-26T17:09:54;9.80;99.60
76967;DHT22;65904;52.278;20.972;2023-03-26T17:12:50;9.70;99.80
76967;DHT22;65904;52.278;20.972;2023-03-26T17:15:45;9.50;99.90
76967;DHT22;65904;52.278;20.972;2023-03-26T17:18:41;9.50;99.90
76967;DHT22;65904;52.278;20.972;2023-03-26T17:21:40;9.60;99.90
76967;DHT22;65904;52.278;20.972;2023-03-26T17:24:37;9.50;99.90
76967;DHT22;65904;52.278;20.972;2023-03-26T17:28:21;9.50;99.90
76967;DHT22;65904;52.278;20.972;2023-03-26T17:31:19;9.40;99.90
76967;DHT22;65904;52.278;20.972;2023-03-26T17:37:38;9.30;99.90
76967;DHT22;65904;52.278;20.972;2023-03-26T17:40:41;9.10;99.90
76967;DHT22;65904;52.278;20.972;2023-03-26T17:43:41;9.10;99.90
76967;DHT22;65904;52.278;20.972;2023-03-26T17:46:32;9.00;99.90
76967;DHT22;65904;52.278;20.972;2023-03-26T17:49:24;9.00;99.90
76967;DHT22;65904;52.278;20.972;2023-03-26T17:52:18;8.80;99.90
76967;DHT22;65904;52.278;20.972;2023-03-26T17:55:08;8.80;99.90
76967;DHT22;65904;52.278;20.972;2023-03-26T17:57:57;8.70;99.90
76967;DHT22;65904;52.278;20.972;2023-03-26T18:00:47;8.60;99.90
76967;DHT22;65904;52.278;20.972;2023-03-26T18:03:38;8.60;99.90
76967;DHT22;65904;52.278;20.972;2023-03-26T18:06:39;8.60;99.90
76967;DHT22;65904;52.278;20.972;2023-03-26T18:09:44;8.50;99.90
76967;DHT22;65904;52.278;20.972;2023-03-26T18:12:50;8.50;99.90
76967;DHT22;65904;52.278;20.972;2023-03-26T18:15:47;8.50;99.90
76967;DHT22;65904;52.278;20.972;2023-03-26T18:18:42;8.40;99.90
76967;DHT22;65904;52.278;20.972;2023-03-26T18:21:33;8.40;99.90
76967;DHT22;65904;52.278;20.972;2023-03-26T18:24:23;8.40;99.90
76967;DHT22;65904;52.278;20.972;2023-03-26T18:27:13;8.30;99.90
76967;DHT22;65904;52.278;20.972;2023-03-26T18:30:11;8.40;99.90
76967;DHT22;65904;52.278;20.972;2023-03-26T18:33:01;8.40;99.90
76967;DHT22;65904;52.278;20.972;2023-03-26T18:35:50;8.50;99.90
76967;DHT22;65904;52.278;20.972;2023-03-26T18:38:39;8.60;99.90
76967;DHT22;65904;52.278;20.972;2023-03-26T18:41:29;8.60;99.90
76967;DHT22;65904;52.278;20.972;2023-03-26T18:44:17;8.60;99.90
76967;DHT22;65904;52.278;20.972;2023-03-26T18:47:06;8.60;99.90
76967;DHT22;65904;52.278;20.972;2023-03-26T18:49:56;8.60;99.90
76967;DHT22;65904;52.278;20.972;2023-03-26T18:52:43;8.60;99.90
76967;DHT22;65904;52.278;20.972;2023-03-26T18:55:31;8.60;99.90
76967;DHT22;65904;52.278;20.972;2023-03-26T18:58:25;8.60;99.90
76967;DHT22;65904;52.278;20.972;2023-03-26T19:01:11;8.60;99.90
76967;DHT22;65904;52.278;20.972;2023-03-26T19:04:01;8.50;99.90
76967;DHT22;65904;52.278;20.972;2023-03-26T19:06:50;8.50;99.90
76967;DHT22;65904;52.278;20.972;2023-03-26T19:09:38;8.50;99.90
76967;DHT22;65904;52.278;20.972;2023-03-26T19:12:27;8.60;99.90
76967;DHT22;65904;52.278;20.972;2023-03-26T19:15:15;8.60;99.90
76967;DHT22;65904;52.278;20.972;2023-03-26T19:18:03;8.60;99.90
76967;DHT22;65904;52.278;20.972;2023-03-26T19:20:56;8.60;99.90
76967;DHT22;65904;52.278;20.972;2023-03-26T19:23:44;8.50;99.90
76967;DHT22;65904;52.278;20.972;2023-03-26T19:26:31;8.40;99.90
76967;DHT22;65904;52.278;20.972;2023-03-26T19:29:20;8.40;99.90
76967;DHT22;65904;52.278;20.972;2023-03-26T19:32:16;8.30;99.90
76967;DHT22;65904;52.278;20.972;2023-03-26T19:35:03;8.30;99.90
76967;DHT22;65904;52.278;20.972;2023-03-26T19:37:51;8.30;99.90
76967;DHT22;65904;52.278;20.972;2023-03-26T19:40:40;8.30;99.90